Time;durP1;ratioP1;P1;durP2;ratioP2;P2;SDS_P1;SDS_P2;PMS_P1;PMS_P2;Temp;Humidity;BMP_temperature;BMP_pressure;BME280_temperature;BME280_humidity;BME280_pressure;Samples;Min_cycle;Max_cycle;Signal;HPM_P1;HPM_P2
2022/10/18 00:00:05;;;;;;;10.68;6.97;;;;;;;17.05;100.00;101663.03;4899929;29;20062;-82
2022/10/18 00:02:32;;;;;;;9.63;7.53;;;;;;;17.03;100.00;101678.25;4909021;29;20096;-82
2022/10/18 00:04:59;;;;;;;7.95;7.15;;;;;;;16.98;100.00;101673.97;4905189;29;20044;-83
2022/10/18 00:07:25;;;;;;;8.52;6.93;;;;;;;16.98;100.00;101668.63;4897248;29;20047;-82
2022/10/18 00:09:52;;;;;;;11.50;8.23;;;;;;;16.92;100.00;101677.72;4901440;29;20044;-83
2022/10/18 00:12:18;;;;;;;9.00;7.45;;;;;;;16.91;100.00;101681.31;4882333;29;20458;-84
2022/10/18 00:14:48;;;;;;;12.85;8.30;;;;;;;17.03;100.00;101672.91;4897615;29;20048;-84
2022/10/18 00:17:15;;;;;;;9.57;8.05;;;;;;;17.00;100.00;101685.50;4897435;29;20402;-83
2022/10/18 00:19:42;;;;;;;11.48;7.78;;;;;;;17.02;100.00;101676.50;4894110;29;20052;-84
2022/10/18 00:22:09;;;;;;;8.73;7.32;;;;;;;16.99;100.00;101686.41;4894548;29;20040;-84
2022/10/18 00:24:35;;;;;;;9.57;7.65;;;;;;;16.99;100.00;101694.44;4889593;29;20047;-83
2022/10/18 00:27:02;;;;;;;11.15;7.32;;;;;;;17.11;100.00;101691.38;4919625;29;20071;-84
2022/10/18 00:29:28;;;;;;;8.10;7.03;;;;;;;17.00;100.00;101688.16;4920181;29;20390;-84
2022/10/18 00:31:55;;;;;;;11.00;8.35;;;;;;;16.99;100.00;101699.75;4904315;29;20051;-83
2022/10/18 00:34:22;;;;;;;11.65;8.80;;;;;;;17.04;100.00;101693.34;4920150;29;20043;-84
2022/10/18 00:36:48;;;;;;;9.65;7.07;;;;;;;16.98;100.00;101692.66;4920034;29;20059;-83
2022/10/18 00:39:17;;;;;;;10.45;7.65;;;;;;;17.05;100.00;101694.22;4919965;29;20075;-83
2022/10/18 00:41:44;;;;;;;13.07;8.73;;;;;;;17.06;100.00;101696.84;4935669;29;20044;-83
2022/10/18 00:44:10;;;;;;;9.63;7.80;;;;;;;16.95;100.00;101698.97;4919979;29;20095;-84
2022/10/18 00:46:39;;;;;;;9.35;8.07;;;;;;;16.98;100.00;101714.00;4919505;29;20047;-83
2022/10/18 00:49:10;;;;;;;10.73;8.52;;;;;;;16.95;100.00;101712.31;4935330;29;20098;-84
2022/10/18 00:52:04;;;;;;;11.98;8.32;;;;;;;16.97;100.00;101710.47;4920110;29;20135;-83
2022/10/18 00:54:37;;;;;;;10.80;8.25;;;;;;;16.93;100.00;101716.84;4920074;29;20051;-83
2022/10/18 00:57:04;;;;;;;11.20;8.57;;;;;;;17.02;100.00;101723.69;4908154;29;20685;-85
2022/10/18 00:59:33;;;;;;;11.80;8.90;;;;;;;17.02;100.00;101731.69;4894784;29;20044;-83
2022/10/18 01:02:00;;;;;;;12.65;8.98;;;;;;;17.02;100.00;101718.34;4885193;29;20048;-83
2022/10/18 01:04:27;;;;;;;11.25;8.65;;;;;;;16.93;100.00;101714.16;4885012;29;20039;-85
2022/10/18 01:07:05;;;;;;;12.18;8.43;;;;;;;16.93;100.00;101710.63;4885296;29;20054;-83
2022/10/18 01:09:43;;;;;;;10.38;8.00;;;;;;;16.89;100.00;101707.16;4916423;29;20422;-83
2022/10/18 01:12:23;;;;;;;8.82;7.93;;;;;;;16.92;100.00;101708.88;4900828;29;20134;-84
2022/10/18 01:15:03;;;;;;;12.32;9.05;;;;;;;16.83;100.00;101710.91;4897782;29;20045;-81
2022/10/18 01:17:51;;;;;;;10.00;7.93;;;;;;;16.80;100.00;101707.44;4916698;29;20044;-80
2022/10/18 01:20:25;;;;;;;14.77;8.98;;;;;;;16.88;100.00;101713.41;4919107;29;20045;-80
2022/10/18 01:23:01;;;;;;;11.20;8.65;;;;;;;16.88;100.00;101708.06;4899151;29;20044;-80
2022/10/18 01:25:42;;;;;;;10.77;9.15;;;;;;;16.82;100.00;101710.94;4917836;29;20064;-80
2022/10/18 01:28:23;;;;;;;10.27;9.13;;;;;;;16.76;100.00;101703.13;4923616;29;20039;-81
2022/10/18 01:30:58;;;;;;;11.45;8.07;;;;;;;16.78;100.00;101710.16;4912703;29;20457;-80
2022/10/18 01:33:26;;;;;;;12.05;8.68;;;;;;;16.74;100.00;101696.97;4933637;29;20047;-80
2022/10/18 01:36:03;;;;;;;10.65;8.98;;;;;;;16.70;100.00;101701.50;4916423;29;20046;-81
2022/10/18 01:38:31;;;;;;;12.25;8.32;;;;;;;16.70;100.00;101712.16;4917820;29;20052;-80
2022/10/18 01:40:59;;;;;;;10.65;8.70;;;;;;;16.67;100.00;101709.56;4899277;29;20049;-80
2022/10/18 01:43:27;;;;;;;12.48;9.20;;;;;;;16.76;100.00;101706.66;4899326;29;20049;-80
2022/10/18 01:45:54;;;;;;;12.27;9.15;;;;;;;16.71;100.00;101711.25;4899989;29;20045;-80
2022/10/18 01:48:21;;;;;;;12.10;9.10;;;;;;;16.70;100.00;101708.63;4921494;29;20108;-80
2022/10/18 01:50:48;;;;;;;11.45;9.00;;;;;;;16.61;100.00;101704.41;4884737;29;20056;-80
2022/10/18 01:53:28;;;;;;;16.52;9.88;;;;;;;16.66;100.00;101707.81;4905164;29;20064;-81
2022/10/18 01:56:09;;;;;;;12.32;9.20;;;;;;;16.58;100.00;101704.50;4886660;29;20552;-80
2022/10/18 01:58:43;;;;;;;14.70;10.27;;;;;;;16.62;100.00;101706.13;4927008;29;20098;-80
2022/10/18 02:01:18;;;;;;;12.88;9.48;;;;;;;16.55;100.00;101716.09;4914303;29;20039;-80
2022/10/18 02:03:47;;;;;;;12.32;9.10;;;;;;;16.71;100.00;101721.91;4908985;29;20054;-80
2022/10/18 02:06:24;;;;;;;10.05;8.75;;;;;;;16.62;100.00;101719.47;4994941;23;20043;-76
2022/10/18 02:08:56;;;;;;;11.23;9.27;;;;;;;16.54;100.00;101716.16;4953564;28;20075;-77
2022/10/18 02:11:23;;;;;;;11.65;9.07;;;;;;;16.56;100.00;101711.66;4938240;29;20412;-77
2022/10/18 02:13:59;;;;;;;12.35;9.07;;;;;;;16.52;100.00;101720.66;4936935;28;20067;-77
2022/10/18 02:16:31;;;;;;;15.55;11.25;;;;;;;16.53;100.00;101714.41;4920236;29;20039;-77
2022/10/18 02:19:00;;;;;;;12.38;8.98;;;;;;;16.50;100.00;101711.84;4921353;29;20465;-77
2022/10/18 02:21:27;;;;;;;12.25;9.65;;;;;;;16.44;100.00;101709.34;4928681;28;20547;-76
2022/10/18 02:23:54;;;;;;;13.20;9.57;;;;;;;16.40;100.00;101705.03;4954538;29;20770;-77
2022/10/18 02:26:21;;;;;;;16.77;11.68;;;;;;;16.38;100.00;101705.03;4936705;29;20051;-77
2022/10/18 02:28:47;;;;;;;15.77;9.63;;;;;;;16.39;100.00;101700.56;4944511;29;20046;-78
2022/10/18 02:31:20;;;;;;;14.23;10.32;;;;;;;16.39;100.00;101700.56;4929898;29;20040;-77
2022/10/18 02:33:54;;;;;;;13.75;9.80;;;;;;;16.31;100.00;101688.38;4936474;29;20416;-77
2022/10/18 02:36:26;;;;;;;14.52;9.25;;;;;;;16.27;100.00;101693.81;4967057;28;20035;-78
2022/10/18 02:38:57;;;;;;;14.23;10.68;;;;;;;16.25;100.00;101696.53;4936343;28;20043;-78
2022/10/18 02:41:25;;;;;;;14.10;10.73;;;;;;;16.24;100.00;101699.22;4939416;29;20047;-77
2022/10/18 02:43:52;;;;;;;13.20;9.70;;;;;;;16.21;100.00;101702.84;4955653;29;20046;-78
2022/10/18 02:46:20;;;;;;;14.63;10.65;;;;;;;16.12;100.00;101713.75;4936499;29;20047;-76
2022/10/18 02:48:46;;;;;;;12.00;9.48;;;;;;;16.05;100.00;101709.50;4961658;28;20043;-78
2022/10/18 02:51:13;;;;;;;12.05;8.95;;;;;;;16.00;100.00;101706.09;4950757;28;20448;-76
2022/10/18 02:53:40;;;;;;;12.18;9.40;;;;;;;15.98;100.00;101705.25;4932330;29;20047;-77
2022/10/18 02:56:07;;;;;;;14.70;9.75;;;;;;;15.98;100.00;101703.47;4933081;29;20126;-77
2022/10/18 02:58:34;;;;;;;14.57;10.70;;;;;;;16.02;100.00;101707.78;4934664;29;20043;-77
2022/10/18 03:01:01;;;;;;;12.63;9.98;;;;;;;15.96;100.00;101725.72;4930625;29;20164;-78
2022/10/18 03:03:27;;;;;;;16.75;11.50;;;;;;;16.13;100.00;101733.28;4953755;29;20094;-79
2022/10/18 03:05:54;;;;;;;14.77;10.70;;;;;;;16.07;100.00;101730.81;4939058;29;20067;-78
2022/10/18 03:08:21;;;;;;;15.13;10.20;;;;;;;16.04;100.00;101748.59;4937173;29;20039;-78
2022/10/18 03:10:48;;;;;;;15.25;11.18;;;;;;;16.00;100.00;101738.06;4940260;29;20036;-78
2022/10/18 03:13:15;;;;;;;18.00;11.02;;;;;;;16.03;100.00;101753.97;4951060;28;20390;-78
2022/10/18 03:15:41;;;;;;;16.08;11.95;;;;;;;15.99;100.00;101755.88;4935190;29;20153;-78
2022/10/18 03:18:08;;;;;;;13.55;9.32;;;;;;;15.89;100.00;101741.03;4967586;28;20524;-78
2022/10/18 03:20:35;;;;;;;15.80;11.32;;;;;;;15.99;100.00;101731.00;4950128;29;20047;-78
2022/10/18 03:23:02;;;;;;;13.73;9.82;;;;;;;15.86;100.00;101724.22;4935360;29;20051;-78
2022/10/18 03:25:28;;;;;;;11.77;9.45;;;;;;;15.78;100.00;101721.75;4937817;29;20040;-78
2022/10/18 03:27:55;;;;;;;14.70;9.68;;;;;;;15.84;100.00;101718.06;4920399;29;20086;-78
2022/10/18 03:30:22;;;;;;;11.35;9.55;;;;;;;15.72;100.00;101720.13;4920010;29;20739;-77
2022/10/18 03:32:48;;;;;;;19.55;9.88;;;;;;;15.76;100.00;101721.78;4921043;29;20549;-78
2022/10/18 03:35:15;;;;;;;10.90;8.32;;;;;;;15.68;100.00;101726.44;4945993;29;20039;-77
2022/10/18 03:37:42;;;;;;;10.48;7.85;;;;;;;15.66;100.00;101733.59;4936726;29;20106;-78
2022/10/18 03:40:09;;;;;;;10.88;8.20;;;;;;;15.59;100.00;101723.09;4936538;29;20047;-78
2022/10/18 03:42:35;;;;;;;9.73;7.65;;;;;;;15.54;100.00;101719.66;4939961;29;20043;-77
2022/10/18 03:45:02;;;;;;;10.88;8.38;;;;;;;15.50;100.00;101721.53;4921042;29;20040;-78
2022/10/18 03:47:29;;;;;;;11.15;8.35;;;;;;;15.46;100.00;101717.16;4919030;29;20091;-78
2022/10/18 03:49:55;;;;;;;11.88;8.85;;;;;;;15.41;100.00;101724.41;4920162;29;20107;-77
2022/10/18 03:52:23;;;;;;;11.38;8.10;;;;;;;15.43;100.00;101719.91;4937295;29;20102;-77
2022/10/18 03:54:49;;;;;;;12.05;7.55;;;;;;;15.38;100.00;101732.44;4922510;29;20043;-78
2022/10/18 03:57:16;;;;;;;11.32;7.90;;;;;;;15.32;100.00;101738.81;4931703;29;20043;-77
2022/10/18 03:59:42;;;;;;;11.50;7.72;;;;;;;15.30;100.00;101737.97;4940472;29;20131;-78
2022/10/18 04:02:09;;;;;;;8.20;6.65;;;;;;;15.27;100.00;101742.47;4928741;29;20509;-77
2022/10/18 04:04:36;;;;;;;9.80;7.28;;;;;;;15.27;100.00;101740.69;4924053;29;20039;-77
2022/10/18 04:07:02;;;;;;;10.52;7.65;;;;;;;15.25;100.00;101738.97;4932173;29;20413;-77
2022/10/18 04:09:29;;;;;;;9.35;7.13;;;;;;;15.20;100.00;101742.59;4951610;28;20043;-78
2022/10/18 04:11:55;;;;;;;11.75;8.95;;;;;;;15.30;100.00;101756.63;4923316;29;20039;-77
2022/10/18 04:14:22;;;;;;;10.25;8.18;;;;;;;15.20;100.00;101744.41;4929701;28;20035;-78
2022/10/18 04:16:49;;;;;;;11.90;8.55;;;;;;;15.23;100.00;101739.03;4938700;29;20070;-78
2022/10/18 04:19:16;;;;;;;12.50;8.45;;;;;;;15.19;100.00;101746.19;4942016;29;20110;-78
2022/10/18 04:21:42;;;;;;;10.15;8.20;;;;;;;15.15;100.00;101749.84;4953857;29;20377;-77
2022/10/18 04:24:11;;;;;;;9.75;7.22;;;;;;;15.15;100.00;101747.19;4929388;29;20040;-79
2022/10/18 04:26:38;;;;;;;10.68;8.88;;;;;;;15.12;100.00;101741.03;4929204;29;20493;-78
2022/10/18 04:29:04;;;;;;;11.48;8.82;;;;;;;15.11;100.00;101736.63;4943246;28;20051;-78
2022/10/18 04:31:31;;;;;;;11.75;8.80;;;;;;;15.11;100.00;101731.28;4960791;29;20133;-78
2022/10/18 04:33:58;;;;;;;10.80;7.90;;;;;;;15.11;100.00;101729.50;4937655;29;20049;-77
2022/10/18 04:36:24;;;;;;;14.50;9.23;;;;;;;15.32;100.00;101733.50;4928077;29;20402;-78
2022/10/18 04:38:51;;;;;;;13.88;9.27;;;;;;;15.18;100.00;101732.91;4929505;29;20109;-78
2022/10/18 04:41:17;;;;;;;12.27;8.88;;;;;;;15.11;100.00;101725.97;4940870;29;20065;-79
2022/10/18 04:43:44;;;;;;;13.63;8.45;;;;;;;15.06;100.00;101733.19;4940668;29;20125;-78
2022/10/18 04:46:15;;;;;;;10.70;8.02;;;;;;;15.05;100.00;101716.34;4940454;29;20086;-78
2022/10/18 04:48:42;;;;;;;12.77;9.18;;;;;;;15.15;100.00;101719.69;4937012;29;20056;-78
2022/10/18 04:51:09;;;;;;;14.43;10.48;;;;;;;15.31;100.00;101720.22;4905145;29;20051;-78
2022/10/18 04:53:35;;;;;;;10.70;9.07;;;;;;;15.14;100.00;101725.91;4936648;29;20610;-78
2022/10/18 04:56:02;;;;;;;12.05;8.77;;;;;;;15.06;100.00;101728.75;4932180;29;20045;-78
2022/10/18 04:58:31;;;;;;;12.70;9.10;;;;;;;15.06;100.00;101744.72;4931774;29;20047;-77
2022/10/18 05:00:58;;;;;;;12.13;9.82;;;;;;;15.02;100.00;101744.81;4923720;29;20043;-77
2022/10/18 05:03:24;;;;;;;11.23;8.45;;;;;;;15.00;100.00;101741.31;4928266;29;20099;-77
2022/10/18 05:05:51;;;;;;;13.32;8.63;;;;;;;14.97;100.00;101738.72;4938716;29;20505;-78
2022/10/18 05:08:34;;;;;;;16.23;10.20;;;;;;;15.02;100.00;101737.69;4935606;29;20051;-77
2022/10/18 05:11:01;;;;;;;14.55;9.93;;;;;;;15.06;100.00;101742.06;4920424;29;20067;-79
2022/10/18 05:13:29;;;;;;;17.40;10.65;;;;;;;15.04;100.00;101743.84;4928451;29;20040;-78
2022/10/18 05:15:59;;;;;;;16.35;10.68;;;;;;;15.02;100.00;101735.03;4950792;29;20043;-78
2022/10/18 05:18:26;;;;;;;14.68;10.25;;;;;;;14.99;100.00;101732.44;4920366;29;20048;-79
2022/10/18 05:20:53;;;;;;;17.23;11.95;;;;;;;15.02;100.00;101735.03;4953829;29;20329;-78
2022/10/18 05:23:19;;;;;;;15.27;11.07;;;;;;;15.00;100.00;101728.88;4954296;29;20043;-78
2022/10/18 05:25:46;;;;;;;16.10;10.48;;;;;;;15.00;100.00;101728.88;4922022;29;20040;-78
2022/10/18 05:28:13;;;;;;;13.93;10.23;;;;;;;15.00;100.00;101728.88;4950917;28;20043;-78
2022/10/18 05:31:01;;;;;;;16.02;10.95;;;;;;;15.04;100.00;101722.56;4933995;29;20106;-78
2022/10/18 05:33:28;;;;;;;18.23;11.10;;;;;;;15.01;100.00;101727.09;4928154;29;20043;-78
2022/10/18 05:35:56;;;;;;;16.77;10.85;;;;;;;15.00;100.00;101728.88;4953801;29;20126;-77
2022/10/18 05:38:23;;;;;;;14.48;10.45;;;;;;;14.97;100.00;101731.63;4953656;29;20412;-77
2022/10/18 05:40:49;;;;;;;15.82;11.43;;;;;;;14.98;100.00;101737.81;4941950;28;20225;-78
2022/10/18 05:43:19;;;;;;;14.65;10.70;;;;;;;14.93;100.00;101725.47;4946753;28;20047;-78
2022/10/18 05:45:47;;;;;;;14.57;10.57;;;;;;;14.90;100.00;101724.66;4933117;29;20496;-77
2022/10/18 05:48:14;;;;;;;14.00;10.45;;;;;;;14.90;100.00;101727.34;4937921;29;20064;-78
2022/10/18 05:50:40;;;;;;;15.90;10.63;;;;;;;14.89;100.00;101726.47;4954061;29;20054;-77
2022/10/18 05:53:07;;;;;;;14.75;10.25;;;;;;;14.89;100.00;101728.25;4922432;29;20047;-77
2022/10/18 05:55:50;;;;;;;16.20;11.20;;;;;;;14.86;100.00;101723.84;4953932;28;20039;-78
2022/10/18 05:58:16;;;;;;;14.00;10.07;;;;;;;14.85;100.00;101731.84;4937731;29;20043;-77
2022/10/18 06:00:43;;;;;;;13.77;10.05;;;;;;;14.85;100.00;101726.53;4952927;29;20114;-77
2022/10/18 06:03:10;;;;;;;13.93;9.77;;;;;;;14.81;100.00;101719.53;4937775;29;20089;-76
2022/10/18 06:05:36;;;;;;;15.00;9.88;;;;;;;14.80;100.00;101721.34;4935373;29;20480;-77
2022/10/18 06:08:08;;;;;;;11.90;9.10;;;;;;;14.79;100.00;101716.03;4919365;29;20110;-77
2022/10/18 06:10:38;;;;;;;16.13;10.60;;;;;;;14.79;100.00;101713.34;4938487;28;20055;-78
2022/10/18 06:13:05;;;;;;;13.00;9.60;;;;;;;14.76;100.00;101713.44;4937332;29;20043;-77
2022/10/18 06:15:32;;;;;;;11.00;8.82;;;;;;;14.75;100.00;101706.38;4921520;29;20043;-77
2022/10/18 06:17:58;;;;;;;13.73;9.00;;;;;;;14.75;100.00;101704.59;4939128;29;20043;-78
2022/10/18 06:20:25;;;;;;;13.70;9.85;;;;;;;14.76;100.00;101700.13;4955445;29;20519;-77
2022/10/18 06:22:52;;;;;;;13.30;9.68;;;;;;;14.76;100.00;101705.44;4928706;29;20043;-78
2022/10/18 06:25:19;;;;;;;13.95;9.93;;;;;;;14.76;100.00;101713.44;4952375;29;20039;-78
2022/10/18 06:27:45;;;;;;;14.27;10.23;;;;;;;14.80;100.00;101707.16;4955239;29;20043;-77
2022/10/18 06:30:12;;;;;;;15.32;11.25;;;;;;;14.81;100.00;101708.91;4955041;28;20039;-78
2022/10/18 06:32:38;;;;;;;14.63;9.65;;;;;;;14.82;100.00;101714.19;4939402;29;20051;-79
2022/10/18 06:35:05;;;;;;;20.08;14.32;;;;;;;15.00;100.00;101720.88;4946778;28;20095;-77
2022/10/18 06:37:33;;;;;;;18.48;12.50;;;;;;;14.95;100.00;101728.09;4936996;29;20087;-78
2022/10/18 06:40:01;;;;;;;16.17;11.02;;;;;;;14.93;100.00;101724.59;4937492;29;20421;-78
2022/10/18 06:42:27;;;;;;;15.38;10.65;;;;;;;14.91;100.00;101727.28;4935772;29;20461;-76
2022/10/18 06:44:54;;;;;;;14.57;10.77;;;;;;;14.90;100.00;101722.88;4936113;29;20039;-76
2022/10/18 06:47:21;;;;;;;14.40;9.90;;;;;;;14.91;100.00;101721.97;4935478;29;20053;-76
2022/10/18 06:49:47;;;;;;;13.45;10.02;;;;;;;14.93;100.00;101722.81;4948700;28;20735;-78
2022/10/18 06:52:19;;;;;;;15.98;11.98;;;;;;;14.97;100.00;101710.31;4919139;29;20043;-76
2022/10/18 06:54:46;;;;;;;21.10;13.75;;;;;;;14.97;100.00;101707.66;4936179;29;20040;-77
2022/10/18 06:57:12;;;;;;;17.88;11.15;;;;;;;15.02;100.00;101705.75;4948956;28;20440;-76
2022/10/18 06:59:39;;;;;;;16.83;11.95;;;;;;;15.07;100.00;101711.00;4945150;29;20058;-77
2022/10/18 07:02:06;;;;;;;15.85;11.38;;;;;;;15.14;100.00;101712.63;4935860;28;20047;-77
2022/10/18 07:04:32;;;;;;;16.35;11.52;;;;;;;15.12;100.00;101715.28;4946980;29;20081;-77
2022/10/18 07:06:59;;;;;;;15.80;10.73;;;;;;;15.12;100.00;101720.59;4935027;29;20585;-77
2022/10/18 07:09:26;;;;;;;14.57;10.23;;;;;;;15.13;100.00;101727.72;4948685;28;20047;-77
2022/10/18 07:11:52;;;;;;;13.90;10.05;;;;;;;15.18;100.00;101733.78;4932408;29;20040;-76
2022/10/18 07:14:19;;;;;;;16.60;11.23;;;;;;;15.21;100.00;101731.03;4916247;29;20047;-76
2022/10/18 07:16:46;;;;;;;23.80;14.77;;;;;;;15.25;100.00;101739.84;4933103;29;20044;-76
2022/10/18 07:19:13;;;;;;;36.05;23.10;;;;;;;15.31;100.00;101738.84;4928378;29;20072;-76
2022/10/18 07:21:40;;;;;;;45.90;29.13;;;;;;;15.34;100.00;101744.97;4928084;29;20035;-78
2022/10/18 07:24:06;;;;;;;36.45;23.63;;;;;;;15.34;100.00;101762.72;4924135;29;20493;-77
2022/10/18 07:26:33;;;;;;;31.55;20.13;;;;;;;15.35;100.00;101759.16;4943807;28;20111;-77
2022/10/18 07:29:08;;;;;;;29.30;18.02;;;;;;;15.40;100.00;101767.94;4952251;29;20043;-78
2022/10/18 07:31:37;;;;;;;23.83;14.43;;;;;;;15.39;100.00;101776.84;4920839;29;20065;-77
2022/10/18 07:34:04;;;;;;;23.75;14.68;;;;;;;15.39;100.00;101779.50;4936221;29;20051;-77
2022/10/18 07:36:31;;;;;;;25.05;15.32;;;;;;;15.45;100.00;101790.00;4935293;29;20043;-77
2022/10/18 07:38:58;;;;;;;22.73;15.32;;;;;;;15.42;100.00;101788.28;4935043;28;20082;-76
2022/10/18 07:41:25;;;;;;;24.20;15.90;;;;;;;15.46;100.00;101789.06;4933988;29;20489;-78
2022/10/18 07:43:52;;;;;;;25.45;15.95;;;;;;;15.48;100.00;101788.16;4950675;29;20051;-77
2022/10/18 07:46:20;;;;;;;26.15;15.52;;;;;;;15.44;100.00;101788.25;4933401;29;20043;-78
2022/10/18 07:48:47;;;;;;;23.08;14.70;;;;;;;15.43;100.00;101786.50;4933037;29;20043;-77
2022/10/18 07:51:14;;;;;;;26.25;14.85;;;;;;;15.44;100.00;101785.56;4921072;29;20496;-77
2022/10/18 07:53:40;;;;;;;23.50;14.50;;;;;;;15.52;100.00;101788.06;4924583;28;20070;-77
2022/10/18 07:56:17;;;;;;;26.48;16.27;;;;;;;15.51;100.00;101787.19;4945036;29;20035;-76
2022/10/18 07:58:50;;;;;;;23.85;14.68;;;;;;;15.46;100.00;101784.63;4929595;29;20492;-76
2022/10/18 08:01:17;;;;;;;33.80;23.80;;;;;;;15.44;100.00;101786.44;4948535;29;20039;-77
2022/10/18 08:03:44;;;;;;;36.25;24.98;;;;;;;15.37;100.00;101778.63;4948756;28;20035;-77
2022/10/18 08:06:13;;;;;;;38.38;25.60;;;;;;;15.42;100.00;101788.28;4915365;29;20040;-76
2022/10/18 08:08:40;;;;;;;28.60;20.98;;;;;;;15.34;100.00;101781.38;5004705;23;20460;31
2022/10/18 08:11:19;;;;;;;27.63;17.98;;;;;;;15.39;100.00;101792.81;4926012;29;20408;-86
2022/10/18 08:13:46;;;;;;;24.10;15.65;;;;;;;15.32;100.00;101791.19;4902922;29;20066;-85
2022/10/18 08:16:15;;;;;;;19.45;12.38;;;;;;;15.31;100.00;101784.13;4927496;29;20540;-83
2022/10/18 08:18:42;;;;;;;18.45;11.73;;;;;;;15.26;100.00;101776.22;4932783;29;20412;-82
2022/10/18 08:21:10;;;;;;;17.15;11.73;;;;;;;15.27;100.00;101769.97;4902465;29;20416;-84
2022/10/18 08:23:39;;;;;;;16.27;11.90;;;;;;;15.31;100.00;101768.13;4927195;29;20043;-84
2022/10/18 08:26:09;;;;;;;23.30;13.75;;;;;;;15.30;100.00;101771.69;4924514;28;20040;-84
2022/10/18 08:28:36;;;;;;;25.42;14.23;;;;;;;15.33;100.00;101771.63;4936019;28;20044;-86
2022/10/18 08:31:08;;;;;;;20.45;12.35;;;;;;;15.29;100.00;101767.28;4917535;29;20134;-83
2022/10/18 08:33:35;;;;;;;17.33;12.10;;;;;;;15.27;100.00;101761.13;4944217;28;20039;-81
2022/10/18 08:36:06;;;;;;;18.30;12.23;;;;;;;15.28;100.00;101770.84;4907520;29;20048;-81
2022/10/18 08:38:34;;;;;;;17.95;12.63;;;;;;;15.36;100.00;101763.56;4915488;29;20059;-82
2022/10/18 08:41:13;;;;;;;19.38;13.02;;;;;;;15.39;100.00;101769.72;4930818;29;20058;-82
2022/10/18 08:43:46;;;;;;;18.42;12.52;;;;;;;15.33;100.00;101767.19;4933399;29;20067;-87
2022/10/18 08:46:13;;;;;;;19.75;12.82;;;;;;;15.35;100.00;101765.34;4910752;29;20036;-86
2022/10/18 08:48:46;;;;;;;20.92;13.32;;;;;;;15.34;100.00;101762.72;4929515;29;20044;-84
2022/10/18 08:51:38;;;;;;;17.13;11.57;;;;;;;15.32;100.00;101768.09;4912974;29;20079;-86
2022/10/18 08:54:10;;;;;;;20.80;12.40;;;;;;;15.29;100.00;101772.59;4910028;29;20297;-84
2022/10/18 08:56:38;;;;;;;20.58;13.18;;;;;;;15.28;100.00;101777.06;4904261;29;20047;-85
2022/10/18 08:59:09;;;;;;;23.92;14.02;;;;;;;15.29;100.00;101770.81;4918508;29;20138;-85
2022/10/18 09:02:11;;;;;;;19.00;12.63;;;;;;;15.41;100.00;101770.56;4923031;29;20090;-85
2022/10/18 09:04:49;;;;;;;19.65;12.50;;;;;;;15.37;100.00;101771.50;4922821;29;20067;-85
2022/10/18 09:07:35;;;;;;;19.88;13.43;;;;;;;15.38;100.00;101785.69;4912117;29;20040;-84
2022/10/18 09:10:26;;;;;;;22.00;15.02;;;;;;;15.39;100.00;101777.72;4903827;29;20059;-85
2022/10/18 09:13:01;;;;;;;19.52;11.32;;;;;;;15.34;100.00;101773.38;4924025;29;20101;-85
2022/10/18 09:15:38;;;;;;;18.08;11.90;;;;;;;15.38;100.00;101777.72;4937864;29;20457;-85
2022/10/18 09:18:20;;;;;;;19.40;12.52;;;;;;;15.33;100.00;101779.63;4912239;29;20052;-84
2022/10/18 09:20:58;;;;;;;19.13;12.50;;;;;;;15.30;100.00;101777.00;4916378;29;20055;-85
2022/10/18 09:23:44;;;;;;;17.58;11.25;;;;;;;15.32;100.00;101785.88;4917693;29;20474;-84
2022/10/18 09:26:18;;;;;;;19.48;11.65;;;;;;;15.27;100.00;101779.75;4932786;29;20043;-84
2022/10/18 09:29:11;;;;;;;18.45;13.02;;;;;;;15.33;100.00;101772.50;4903223;29;20044;-85
2022/10/18 09:31:51;;;;;;;21.33;12.85;;;;;;;15.34;100.00;101771.59;4933203;29;20039;-83
2022/10/18 09:34:44;;;;;;;21.05;13.48;;;;;;;15.33;100.00;101769.84;4927492;29;20039;-84
2022/10/18 09:37:12;;;;;;;20.80;13.57;;;;;;;15.29;100.00;101769.94;4929589;29;20104;-84
2022/10/18 09:39:39;;;;;;;28.15;14.60;;;;;;;15.27;100.00;101777.09;4911442;29;20071;-85
2022/10/18 09:42:28;;;;;;;21.65;12.77;;;;;;;15.20;100.00;101776.34;4908448;29;20394;-85
2022/10/18 09:45:02;;;;;;;21.27;12.90;;;;;;;15.28;100.00;101773.50;4910791;29;20059;-85
2022/10/18 09:47:44;;;;;;;17.27;11.68;;;;;;;15.21;100.00;101768.31;4920516;29;20095;-82
2022/10/18 09:50:23;;;;;;;20.80;12.75;;;;;;;15.24;100.00;101763.84;4904360;29;20062;-83
2022/10/18 09:52:58;;;;;;;19.85;14.48;;;;;;;15.25;100.00;101768.28;4908346;29;20047;-84
2022/10/18 09:55:31;;;;;;;20.10;12.43;;;;;;;15.17;100.00;101761.31;4922055;29;20051;-84
2022/10/18 09:57:59;;;;;;;19.20;11.98;;;;;;;15.10;100.00;101759.69;4921408;29;20043;-85
2022/10/18 10:00:46;;;;;;;21.08;12.43;;;;;;;15.11;100.00;101763.22;4938009;29;20047;-85
2022/10/18 10:03:14;;;;;;;19.98;11.68;;;;;;;15.11;100.00;101764.09;4922609;29;20130;-82
2022/10/18 10:05:42;;;;;;;24.63;14.27;;;;;;;15.17;100.00;101763.97;4919998;29;20607;-81
2022/10/18 10:08:09;;;;;;;17.42;12.82;;;;;;;15.14;100.00;101760.53;4920646;29;20058;-81
2022/10/18 10:10:38;;;;;;;20.48;12.40;;;;;;;15.08;100.00;101756.19;4919982;29;20103;-83
2022/10/18 10:13:21;;;;;;;17.70;11.52;;;;;;;15.05;100.00;101753.63;4919552;29;20496;-81
2022/10/18 10:15:52;;;;;;;20.17;12.38;;;;;;;15.01;100.00;101757.25;4932050;29;20043;-83
2022/10/18 10:18:25;;;;;;;14.25;10.40;;;;;;;15.00;100.00;101757.28;4916577;29;20044;-81
2022/10/18 10:20:59;;;;;;;16.80;11.18;;;;;;;14.95;100.00;101749.38;4906239;29;20044;-83
2022/10/18 10:23:32;;;;;;;16.65;10.57;;;;;;;14.97;100.00;101746.72;4917029;29;20536;-85
2022/10/18 10:26:21;;;;;;;15.48;10.50;;;;;;;14.98;100.00;101740.47;4923310;29;20047;-81
2022/10/18 10:28:48;;;;;;;16.13;10.90;;;;;;;14.99;100.00;101745.75;4954995;28;20053;-83
2022/10/18 10:31:26;;;;;;;17.67;10.85;;;;;;;15.00;100.00;101758.16;4903281;29;20052;-81
2022/10/18 10:34:11;;;;;;;16.30;11.13;;;;;;;14.97;100.00;101757.34;4904427;29;20047;-82
2022/10/18 10:36:49;;;;;;;20.85;12.77;;;;;;;15.03;100.00;101760.72;4940748;28;20046;-82
2022/10/18 10:39:19;;;;;;;19.98;12.15;;;;;;;15.00;100.00;101746.63;4916713;29;20497;-82
2022/10/18 10:41:51;;;;;;;21.40;13.50;;;;;;;15.08;100.00;101755.31;4923384;29;20055;-82
2022/10/18 10:44:23;;;;;;;18.50;12.40;;;;;;;14.99;100.00;101748.41;4936110;29;20051;-82
2022/10/18 10:46:51;;;;;;;15.43;9.77;;;;;;;14.99;100.00;101744.88;4922792;29;20043;-82
2022/10/18 10:49:26;;;;;;;21.25;10.93;;;;;;;14.99;100.00;101743.09;4904110;29;20074;-82
2022/10/18 10:52:06;;;;;;;14.00;10.00;;;;;;;15.03;100.00;101752.75;4933123;28;20532;-82
2022/10/18 10:54:48;;;;;;;15.90;11.82;;;;;;;15.02;100.00;101761.66;4910033;29;20575;-83
2022/10/18 10:57:25;;;;;;;17.67;11.07;;;;;;;15.06;100.00;101767.81;4918848;29;20050;-82
2022/10/18 10:59:58;;;;;;;17.40;11.60;;;;;;;15.14;100.00;101765.84;4925323;29;20051;-80
2022/10/18 11:02:32;;;;;;;17.52;10.35;;;;;;;15.30;100.00;101747.72;4948526;29;20497;-83
2022/10/18 11:05:22;;;;;;;14.57;10.05;;;;;;;15.32;100.00;101744.13;4924496;29;20054;-83
2022/10/18 11:07:51;;;;;;;14.30;9.85;;;;;;;15.29;100.00;101748.63;4923472;29;20055;-80
2022/10/18 11:10:21;;;;;;;14.25;10.20;;;;;;;15.39;100.00;101745.75;4909177;29;20095;-81
2022/10/18 11:13:08;;;;;;;12.55;9.25;;;;;;;15.32;100.00;101736.16;4907297;29;20047;-81
2022/10/18 11:15:40;;;;;;;15.40;10.38;;;;;;;15.35;100.00;101744.06;4937976;29;20043;-81
2022/10/18 11:18:19;;;;;;;16.73;10.20;;;;;;;15.40;100.00;101744.84;4908476;29;20054;-80